sensor_id;sensor_type;location;lat;lon;timestamp;temperature;humidity
38464;DHT22;24243;51.956;5.902;2022-09-03T00:00:29;25.10;36.70
38464;DHT22;24243;51.956;5.902;2022-09-03T00:03:16;25.10;36.80
38464;DHT22;24243;51.956;5.902;2022-09-03T00:05:46;25.10;36.80
38464;DHT22;24243;51.956;5.902;2022-09-03T00:08:20;25.20;36.80
38464;DHT22;24243;51.956;5.902;2022-09-03T00:13:18;25.10;36.80
38464;DHT22;24243;51.956;5.902;2022-09-03T00:15:44;25.20;36.90
38464;DHT22;24243;51.956;5.902;2022-09-03T00:18:18;25.10;36.80
38464;DHT22;24243;51.956;5.902;2022-09-03T00:20:55;25.10;36.80
38464;DHT22;24243;51.956;5.902;2022-09-03T00:23:26;25.10;36.80
38464;DHT22;24243;51.956;5.902;2022-09-03T00:28:28;25.10;36.90
38464;DHT22;24243;51.956;5.902;2022-09-03T00:33:46;25.10;36.90
38464;DHT22;24243;51.956;5.902;2022-09-03T00:36:20;25.10;36.90
38464;DHT22;24243;51.956;5.902;2022-09-03T00:38:47;25.10;36.90
38464;DHT22;24243;51.956;5.902;2022-09-03T00:41:47;25.10;36.90
38464;DHT22;24243;51.956;5.902;2022-09-03T00:44:09;25.10;36.90
38464;DHT22;24243;51.956;5.902;2022-09-03T01:02:18;25.00;36.90
38464;DHT22;24243;51.956;5.902;2022-09-03T01:04:54;25.00;37.00
38464;DHT22;24243;51.956;5.902;2022-09-03T01:08:10;25.00;37.00
38464;DHT22;24243;51.956;5.902;2022-09-03T01:10:29;25.00;37.00
38464;DHT22;24243;51.956;5.902;2022-09-03T01:15:34;25.00;37.00
38464;DHT22;24243;51.956;5.902;2022-09-03T01:20:59;25.00;37.00
38464;DHT22;24243;51.956;5.902;2022-09-03T01:26:02;25.00;37.00
38464;DHT22;24243;51.956;5.902;2022-09-03T01:28:51;25.00;37.10
38464;DHT22;24243;51.956;5.902;2022-09-03T01:32:08;25.00;37.00
38464;DHT22;24243;51.956;5.902;2022-09-03T01:34:12;25.00;37.10
38464;DHT22;24243;51.956;5.902;2022-09-03T01:36:47;25.00;37.10
38464;DHT22;24243;51.956;5.902;2022-09-03T01:39:21;25.00;37.00
38464;DHT22;24243;51.956;5.902;2022-09-03T01:41:58;25.00;37.10
38464;DHT22;24243;51.956;5.902;2022-09-03T01:47:27;25.00;37.10
38464;DHT22;24243;51.956;5.902;2022-09-03T01:52:48;24.90;37.00
38464;DHT22;24243;51.956;5.902;2022-09-03T01:55:23;24.90;37.10
38464;DHT22;24243;51.956;5.902;2022-09-03T01:57:57;24.90;37.10
38464;DHT22;24243;51.956;5.902;2022-09-03T02:00:25;24.90;37.10
38464;DHT22;24243;51.956;5.902;2022-09-03T02:02:52;24.90;37.10
38464;DHT22;24243;51.956;5.902;2022-09-03T02:05:19;24.90;37.10
38464;DHT22;24243;51.956;5.902;2022-09-03T02:07:49;24.90;37.10
38464;DHT22;24243;51.956;5.902;2022-09-03T02:10:20;24.90;37.10
38464;DHT22;24243;51.956;5.902;2022-09-03T02:12:48;24.90;37.10
38464;DHT22;24243;51.956;5.902;2022-09-03T02:15:16;24.90;37.10
38464;DHT22;24243;51.956;5.902;2022-09-03T02:17:43;24.90;37.10
38464;DHT22;24243;51.956;5.902;2022-09-03T02:20:11;24.90;37.10
38464;DHT22;24243;51.956;5.902;2022-09-03T02:22:38;24.90;37.10
38464;DHT22;24243;51.956;5.902;2022-09-03T02:25:05;24.90;37.10
38464;DHT22;24243;51.956;5.902;2022-09-03T02:27:31;24.90;37.20
38464;DHT22;24243;51.956;5.902;2022-09-03T02:29:57;24.90;37.20
38464;DHT22;24243;51.956;5.902;2022-09-03T02:32:23;24.90;37.20
38464;DHT22;24243;51.956;5.902;2022-09-03T02:34:48;24.90;37.20
38464;DHT22;24243;51.956;5.902;2022-09-03T02:37:14;24.90;37.20
38464;DHT22;24243;51.956;5.902;2022-09-03T02:39:40;24.90;37.20
38464;DHT22;24243;51.956;5.902;2022-09-03T02:42:06;24.90;37.20
38464;DHT22;24243;51.956;5.902;2022-09-03T02:44:34;24.90;37.20
38464;DHT22;24243;51.956;5.902;2022-09-03T02:47:02;24.90;37.20
38464;DHT22;24243;51.956;5.902;2022-09-03T02:49:28;24.90;37.20
38464;DHT22;24243;51.956;5.902;2022-09-03T02:52:01;24.80;37.20
38464;DHT22;24243;51.956;5.902;2022-09-03T02:54:31;24.80;37.20
38464;DHT22;24243;51.956;5.902;2022-09-03T02:56:57;24.80;37.20
38464;DHT22;24243;51.956;5.902;2022-09-03T02:59:24;24.80;37.20
38464;DHT22;24243;51.956;5.902;2022-09-03T03:01:52;24.80;37.20
38464;DHT22;24243;51.956;5.902;2022-09-03T03:04:18;24.80;37.20
38464;DHT22;24243;51.956;5.902;2022-09-03T03:06:44;24.80;37.20
38464;DHT22;24243;51.956;5.902;2022-09-03T03:09:09;24.80;37.30
38464;DHT22;24243;51.956;5.902;2022-09-03T03:11:35;24.80;37.20
38464;DHT22;24243;51.956;5.902;2022-09-03T03:14:01;24.80;37.20
38464;DHT22;24243;51.956;5.902;2022-09-03T03:16:27;24.80;37.30
38464;DHT22;24243;51.956;5.902;2022-09-03T03:18:54;24.80;37.30
38464;DHT22;24243;51.956;5.902;2022-09-03T03:21:20;24.80;37.30
38464;DHT22;24243;51.956;5.902;2022-09-03T03:23:45;24.80;37.30
38464;DHT22;24243;51.956;5.902;2022-09-03T03:26:12;24.80;37.30
38464;DHT22;24243;51.956;5.902;2022-09-03T03:28:38;24.80;37.30
38464;DHT22;24243;51.956;5.902;2022-09-03T03:31:10;24.70;37.30
38464;DHT22;24243;51.956;5.902;2022-09-03T03:33:35;24.70;37.30
38464;DHT22;24243;51.956;5.902;2022-09-03T03:36:08;24.70;37.30
38464;DHT22;24243;51.956;5.902;2022-09-03T03:38:34;24.70;37.30
38464;DHT22;24243;51.956;5.902;2022-09-03T03:43:35;24.70;37.30
38464;DHT22;24243;51.956;5.902;2022-09-03T03:46:01;24.70;37.30
38464;DHT22;24243;51.956;5.902;2022-09-03T03:48:26;24.70;37.30
38464;DHT22;24243;51.956;5.902;2022-09-03T03:50:52;24.70;37.30
38464;DHT22;24243;51.956;5.902;2022-09-03T03:53:18;24.70;37.30
38464;DHT22;24243;51.956;5.902;2022-09-03T03:55:52;24.70;37.40
38464;DHT22;24243;51.956;5.902;2022-09-03T03:58:18;24.70;37.30
38464;DHT22;24243;51.956;5.902;2022-09-03T04:00:44;24.70;37.40
38464;DHT22;24243;51.956;5.902;2022-09-03T04:03:12;24.70;37.40
38464;DHT22;24243;51.956;5.902;2022-09-03T04:05:37;24.70;37.40
38464;DHT22;24243;51.956;5.902;2022-09-03T04:08:03;24.70;37.40
38464;DHT22;24243;51.956;5.902;2022-09-03T04:10:28;24.70;37.40
38464;DHT22;24243;51.956;5.902;2022-09-03T04:12:54;24.70;37.40
38464;DHT22;24243;51.956;5.902;2022-09-03T04:15:20;24.70;37.40
38464;DHT22;24243;51.956;5.902;2022-09-03T04:17:46;24.60;37.30
38464;DHT22;24243;51.956;5.902;2022-09-03T04:20:11;24.60;37.40
38464;DHT22;24243;51.956;5.902;2022-09-03T04:22:37;24.60;37.40
38464;DHT22;24243;51.956;5.902;2022-09-03T04:25:02;24.60;37.40
38464;DHT22;24243;51.956;5.902;2022-09-03T04:27:28;24.70;37.50
38464;DHT22;24243;51.956;5.902;2022-09-03T04:29:54;24.60;37.40
38464;DHT22;24243;51.956;5.902;2022-09-03T04:32:19;24.60;37.40
38464;DHT22;24243;51.956;5.902;2022-09-03T04:35:03;24.60;37.40
38464;DHT22;24243;51.956;5.902;2022-09-03T04:37:29;24.60;37.40
38464;DHT22;24243;51.956;5.902;2022-09-03T04:39:54;24.60;37.40
38464;DHT22;24243;51.956;5.902;2022-09-03T04:42:20;24.60;37.40
38464;DHT22;24243;51.956;5.902;2022-09-03T04:44:46;24.60;37.40
38464;DHT22;24243;51.956;5.902;2022-09-03T04:47:11;24.60;37.40
38464;DHT22;24243;51.956;5.902;2022-09-03T04:49:37;24.60;37.50
38464;DHT22;24243;51.956;5.902;2022-09-03T04:52:04;24.60;37.50
38464;DHT22;24243;51.956;5.902;2022-09-03T04:54:30;24.60;37.50
38464;DHT22;24243;51.956;5.902;2022-09-03T04:56:55;24.60;37.50
38464;DHT22;24243;51.956;5.902;2022-09-03T04:59:21;24.60;37.50
38464;DHT22;24243;51.956;5.902;2022-09-03T05:01:46;24.60;37.50
38464;DHT22;24243;51.956;5.902;2022-09-03T05:04:12;24.60;37.50
38464;DHT22;24243;51.956;5.902;2022-09-03T05:06:38;24.60;37.50
38464;DHT22;24243;51.956;5.902;2022-09-03T05:09:03;24.60;37.50
38464;DHT22;24243;51.956;5.902;2022-09-03T05:11:29;24.60;37.40
38464;DHT22;24243;51.956;5.902;2022-09-03T05:13:56;24.60;37.50
38464;DHT22;24243;51.956;5.902;2022-09-03T05:16:22;24.60;37.50
38464;DHT22;24243;51.956;5.902;2022-09-03T05:18:50;24.60;37.50
38464;DHT22;24243;51.956;5.902;2022-09-03T05:21:17;24.60;37.50
38464;DHT22;24243;51.956;5.902;2022-09-03T05:23:43;24.60;37.50
38464;DHT22;24243;51.956;5.902;2022-09-03T05:26:10;24.60;37.50
38464;DHT22;24243;51.956;5.902;2022-09-03T05:28:38;24.60;37.50
38464;DHT22;24243;51.956;5.902;2022-09-03T05:31:04;24.60;37.50
38464;DHT22;24243;51.956;5.902;2022-09-03T05:33:34;24.60;37.50
38464;DHT22;24243;51.956;5.902;2022-09-03T05:36:04;24.60;38.10
38464;DHT22;24243;51.956;5.902;2022-09-03T05:38:30;24.60;37.50
38464;DHT22;24243;51.956;5.902;2022-09-03T05:40:59;24.60;37.50
38464;DHT22;24243;51.956;5.902;2022-09-03T05:43:25;24.60;37.50
38464;DHT22;24243;51.956;5.902;2022-09-03T05:45:51;24.50;37.40
38464;DHT22;24243;51.956;5.902;2022-09-03T05:48:16;24.50;37.40
38464;DHT22;24243;51.956;5.902;2022-09-03T05:50:42;24.30;37.30
38464;DHT22;24243;51.956;5.902;2022-09-03T05:53:07;24.20;37.30
38464;DHT22;24243;51.956;5.902;2022-09-03T05:55:33;24.10;37.30
38464;DHT22;24243;51.956;5.902;2022-09-03T05:57:58;24.10;37.30
38464;DHT22;24243;51.956;5.902;2022-09-03T06:00:24;24.10;37.30
38464;DHT22;24243;51.956;5.902;2022-09-03T06:02:50;24.10;37.20
38464;DHT22;24243;51.956;5.902;2022-09-03T06:05:16;24.10;37.10
38464;DHT22;24243;51.956;5.902;2022-09-03T06:07:43;24.20;36.90
38464;DHT22;24243;51.956;5.902;2022-09-03T06:10:08;24.30;36.70
38464;DHT22;24243;51.956;5.902;2022-09-03T06:12:35;24.50;36.50
38464;DHT22;24243;51.956;5.902;2022-09-03T06:15:01;24.60;36.30
38464;DHT22;24243;51.956;5.902;2022-09-03T06:17:26;24.80;36.30
38464;DHT22;24243;51.956;5.902;2022-09-03T06:19:52;25.00;36.10
38464;DHT22;24243;51.956;5.902;2022-09-03T06:22:18;25.30;36.00
38464;DHT22;24243;51.956;5.902;2022-09-03T06:24:43;25.50;35.70
38464;DHT22;24243;51.956;5.902;2022-09-03T06:27:09;25.80;35.40
38464;DHT22;24243;51.956;5.902;2022-09-03T06:29:34;26.20;35.20
38464;DHT22;24243;51.956;5.902;2022-09-03T06:32:00;26.50;34.80
38464;DHT22;24243;51.956;5.902;2022-09-03T06:34:28;26.80;34.60
38464;DHT22;24243;51.956;5.902;2022-09-03T06:36:54;27.10;34.30
38464;DHT22;24243;51.956;5.902;2022-09-03T06:39:20;27.30;34.00
38464;DHT22;24243;51.956;5.902;2022-09-03T06:41:45;27.60;33.80
38464;DHT22;24243;51.956;5.902;2022-09-03T06:44:12;27.90;33.70
38464;DHT22;24243;51.956;5.902;2022-09-03T06:46:39;28.10;33.40
38464;DHT22;24243;51.956;5.902;2022-09-03T06:49:06;28.40;33.20
38464;DHT22;24243;51.956;5.902;2022-09-03T06:51:32;28.60;32.90
38464;DHT22;24243;51.956;5.902;2022-09-03T06:54:02;28.90;32.80
38464;DHT22;24243;51.956;5.902;2022-09-03T06:56:28;29.10;32.70
38464;DHT22;24243;51.956;5.902;2022-09-03T06:58:54;29.30;32.50
38464;DHT22;24243;51.956;5.902;2022-09-03T07:01:24;29.50;33.00
38464;DHT22;24243;51.956;5.902;2022-09-03T07:03:54;29.70;32.10
38464;DHT22;24243;51.956;5.902;2022-09-03T07:06:26;29.90;32.10
38464;DHT22;24243;51.956;5.902;2022-09-03T07:08:53;30.00;32.00
38464;DHT22;24243;51.956;5.902;2022-09-03T07:11:19;30.20;31.90
38464;DHT22;24243;51.956;5.902;2022-09-03T07:13:47;30.30;31.80
38464;DHT22;24243;51.956;5.902;2022-09-03T07:16:18;30.50;31.90
38464;DHT22;24243;51.956;5.902;2022-09-03T07:18:44;30.60;31.80
38464;DHT22;24243;51.956;5.902;2022-09-03T07:21:11;30.70;31.80
38464;DHT22;24243;51.956;5.902;2022-09-03T07:23:37;30.80;31.70
38464;DHT22;24243;51.956;5.902;2022-09-03T07:26:04;30.90;31.70
38464;DHT22;24243;51.956;5.902;2022-09-03T07:28:30;31.00;31.70
38464;DHT22;24243;51.956;5.902;2022-09-03T07:31:04;31.10;31.60
38464;DHT22;24243;51.956;5.902;2022-09-03T07:33:30;31.20;31.50
38464;DHT22;24243;51.956;5.902;2022-09-03T07:36:00;31.30;31.50
38464;DHT22;24243;51.956;5.902;2022-09-03T07:38:26;31.40;31.40
38464;DHT22;24243;51.956;5.902;2022-09-03T07:40:58;31.50;31.30
38464;DHT22;24243;51.956;5.902;2022-09-03T07:43:28;31.60;31.30
38464;DHT22;24243;51.956;5.902;2022-09-03T07:45:54;31.60;31.10
38464;DHT22;24243;51.956;5.902;2022-09-03T07:48:20;31.70;30.90
38464;DHT22;24243;51.956;5.902;2022-09-03T07:50:45;31.70;30.90
38464;DHT22;24243;51.956;5.902;2022-09-03T07:53:12;31.80;30.90
38464;DHT22;24243;51.956;5.902;2022-09-03T07:55:37;31.90;30.80
38464;DHT22;24243;51.956;5.902;2022-09-03T07:58:03;32.00;30.80
38464;DHT22;24243;51.956;5.902;2022-09-03T08:00:29;32.00;30.70
38464;DHT22;24243;51.956;5.902;2022-09-03T08:02:57;31.60;30.90
38464;DHT22;24243;51.956;5.902;2022-09-03T08:05:28;30.90;31.30
38464;DHT22;24243;51.956;5.902;2022-09-03T08:07:53;30.30;31.70
38464;DHT22;24243;51.956;5.902;2022-09-03T08:10:19;29.70;32.20
38464;DHT22;24243;51.956;5.902;2022-09-03T08:12:45;29.10;32.50
38464;DHT22;24243;51.956;5.902;2022-09-03T08:15:11;28.70;32.90
38464;DHT22;24243;51.956;5.902;2022-09-03T08:17:36;28.40;33.20
38464;DHT22;24243;51.956;5.902;2022-09-03T08:20:02;28.00;33.40
38464;DHT22;24243;51.956;5.902;2022-09-03T08:22:28;27.80;33.60
38464;DHT22;24243;51.956;5.902;2022-09-03T08:24:53;27.50;33.70
38464;DHT22;24243;51.956;5.902;2022-09-03T08:27:20;27.40;33.90
38464;DHT22;24243;51.956;5.902;2022-09-03T08:29:49;27.20;34.00
38464;DHT22;24243;51.956;5.902;2022-09-03T08:32:15;27.00;34.00
38464;DHT22;24243;51.956;5.902;2022-09-03T08:34:40;26.80;34.10
38464;DHT22;24243;51.956;5.902;2022-09-03T08:37:06;26.80;34.30
38464;DHT22;24243;51.956;5.902;2022-09-03T08:39:37;26.60;34.30
38464;DHT22;24243;51.956;5.902;2022-09-03T08:47:10;26.40;34.40
38464;DHT22;24243;51.956;5.902;2022-09-03T08:54:50;26.20;34.50
38464;DHT22;24243;51.956;5.902;2022-09-03T08:57:18;26.10;34.50
38464;DHT22;24243;51.956;5.902;2022-09-03T08:59:52;26.10;34.50
38464;DHT22;24243;51.956;5.902;2022-09-03T09:02:34;26.10;34.60
38464;DHT22;24243;51.956;5.902;2022-09-03T09:05:10;26.10;34.60
38464;DHT22;24243;51.956;5.902;2022-09-03T09:18:17;26.00;34.70
38464;DHT22;24243;51.956;5.902;2022-09-03T09:23:07;26.00;34.80
38464;DHT22;24243;51.956;5.902;2022-09-03T09:25:33;26.00;34.90
38464;DHT22;24243;51.956;5.902;2022-09-03T09:28:12;26.00;34.90
38464;DHT22;24243;51.956;5.902;2022-09-03T09:30:40;26.00;34.90
38464;DHT22;24243;51.956;5.902;2022-09-03T09:33:06;26.00;35.00
38464;DHT22;24243;51.956;5.902;2022-09-03T09:35:32;25.90;34.90
38464;DHT22;24243;51.956;5.902;2022-09-03T09:37:57;26.00;35.00
38464;DHT22;24243;51.956;5.902;2022-09-03T09:43:05;25.90;35.00
38464;DHT22;24243;51.956;5.902;2022-09-03T09:45:31;26.00;35.10
38464;DHT22;24243;51.956;5.902;2022-09-03T09:47:58;26.00;35.20
38464;DHT22;24243;51.956;5.902;2022-09-03T09:50:24;26.00;35.20
38464;DHT22;24243;51.956;5.902;2022-09-03T09:52:58;25.90;35.10
38464;DHT22;24243;51.956;5.902;2022-09-03T09:55:24;26.00;35.30
38464;DHT22;24243;51.956;5.902;2022-09-03T09:58:03;25.90;35.20
38464;DHT22;24243;51.956;5.902;2022-09-03T10:00:29;26.00;35.30
38464;DHT22;24243;51.956;5.902;2022-09-03T10:02:59;26.00;35.30
38464;DHT22;24243;51.956;5.902;2022-09-03T10:05:31;25.90;35.20
38464;DHT22;24243;51.956;5.902;2022-09-03T10:08:04;26.00;35.30
38464;DHT22;24243;51.956;5.902;2022-09-03T10:10:33;26.00;35.40
38464;DHT22;24243;51.956;5.902;2022-09-03T10:13:09;26.00;35.40
38464;DHT22;24243;51.956;5.902;2022-09-03T10:15:50;26.00;35.40
38464;DHT22;24243;51.956;5.902;2022-09-03T10:21:07;26.10;35.50
38464;DHT22;24243;51.956;5.902;2022-09-03T10:26:21;26.00;35.50
38464;DHT22;24243;51.956;5.902;2022-09-03T10:28:55;26.10;35.60
38464;DHT22;24243;51.956;5.902;2022-09-03T10:31:26;26.10;35.70
38464;DHT22;24243;51.956;5.902;2022-09-03T10:36:27;26.10;35.70
38464;DHT22;24243;51.956;5.902;2022-09-03T10:38:59;26.10;35.80
38464;DHT22;24243;51.956;5.902;2022-09-03T10:46:26;26.10;35.90
38464;DHT22;24243;51.956;5.902;2022-09-03T10:51:40;26.10;35.90
38464;DHT22;24243;51.956;5.902;2022-09-03T10:54:14;26.10;36.00
38464;DHT22;24243;51.956;5.902;2022-09-03T10:56:51;26.10;36.00
38464;DHT22;24243;51.956;5.902;2022-09-03T11:07:16;26.20;36.00
38464;DHT22;24243;51.956;5.902;2022-09-03T11:12:57;26.20;36.10
38464;DHT22;24243;51.956;5.902;2022-09-03T11:15:06;26.20;36.10
38464;DHT22;24243;51.956;5.902;2022-09-03T11:20:21;26.20;36.00
38464;DHT22;24243;51.956;5.902;2022-09-03T11:22:48;26.20;36.10
38464;DHT22;24243;51.956;5.902;2022-09-03T11:25:16;26.30;36.10
38464;DHT22;24243;51.956;5.902;2022-09-03T11:27:48;26.30;36.10
38464;DHT22;24243;51.956;5.902;2022-09-03T11:30:24;26.30;36.10
38464;DHT22;24243;51.956;5.902;2022-09-03T11:32:57;26.30;36.80
38464;DHT22;24243;51.956;5.902;2022-09-03T11:37:59;26.30;36.20
38464;DHT22;24243;51.956;5.902;2022-09-03T11:40:31;26.30;36.20
38464;DHT22;24243;51.956;5.902;2022-09-03T11:43:04;26.30;36.20
38464;DHT22;24243;51.956;5.902;2022-09-03T11:45:34;26.40;36.30
38464;DHT22;24243;51.956;5.902;2022-09-03T11:48:00;26.40;36.30
38464;DHT22;24243;51.956;5.902;2022-09-03T11:50:27;26.40;36.30
38464;DHT22;24243;51.956;5.902;2022-09-03T11:53:06;26.40;36.30
38464;DHT22;24243;51.956;5.902;2022-09-03T11:55:43;26.40;36.30
38464;DHT22;24243;51.956;5.902;2022-09-03T11:58:09;26.40;36.40
38464;DHT22;24243;51.956;5.902;2022-09-03T12:00:35;26.40;36.40
38464;DHT22;24243;51.956;5.902;2022-09-03T12:03:03;26.40;36.40
38464;DHT22;24243;51.956;5.902;2022-09-03T12:05:45;26.40;36.40
38464;DHT22;24243;51.956;5.902;2022-09-03T12:16:27;26.40;36.40
38464;DHT22;24243;51.956;5.902;2022-09-03T12:19:00;26.40;36.50
38464;DHT22;24243;51.956;5.902;2022-09-03T12:21:27;26.40;36.50
38464;DHT22;24243;51.956;5.902;2022-09-03T12:23:52;26.40;36.50
38464;DHT22;24243;51.956;5.902;2022-09-03T12:26:22;26.50;36.60
38464;DHT22;24243;51.956;5.902;2022-09-03T12:28:49;26.40;36.50
38464;DHT22;24243;51.956;5.902;2022-09-03T12:33:50;26.50;36.70
38464;DHT22;24243;51.956;5.902;2022-09-03T12:36:16;26.50;36.60
38464;DHT22;24243;51.956;5.902;2022-09-03T12:38:42;26.50;36.60
38464;DHT22;24243;51.956;5.902;2022-09-03T12:41:27;26.50;36.60
38464;DHT22;24243;51.956;5.902;2022-09-03T12:43:57;26.50;36.60
38464;DHT22;24243;51.956;5.902;2022-09-03T12:46:25;26.50;36.60
38464;DHT22;24243;51.956;5.902;2022-09-03T12:48:51;26.50;36.60
38464;DHT22;24243;51.956;5.902;2022-09-03T12:51:17;26.50;36.70
38464;DHT22;24243;51.956;5.902;2022-09-03T12:53:43;26.50;36.70
38464;DHT22;24243;51.956;5.902;2022-09-03T12:56:09;26.60;36.80
38464;DHT22;24243;51.956;5.902;2022-09-03T12:58:37;26.60;36.80
38464;DHT22;24243;51.956;5.902;2022-09-03T13:09:25;26.60;36.90
38464;DHT22;24243;51.956;5.902;2022-09-03T13:11:57;26.60;36.80
38464;DHT22;24243;51.956;5.902;2022-09-03T13:14:24;26.60;36.90
38464;DHT22;24243;51.956;5.902;2022-09-03T13:16:54;26.60;36.90
38464;DHT22;24243;51.956;5.902;2022-09-03T13:27:07;26.60;36.90
38464;DHT22;24243;51.956;5.902;2022-09-03T13:29:53;26.60;36.90
38464;DHT22;24243;51.956;5.902;2022-09-03T13:35:03;26.60;36.90
38464;DHT22;24243;51.956;5.902;2022-09-03T13:37:37;26.60;36.90
38464;DHT22;24243;51.956;5.902;2022-09-03T13:40:15;26.60;36.90
38464;DHT22;24243;51.956;5.902;2022-09-03T13:45:28;26.60;36.90
38464;DHT22;24243;51.956;5.902;2022-09-03T13:47:57;26.60;36.90
38464;DHT22;24243;51.956;5.902;2022-09-03T13:50:49;26.60;37.00
38464;DHT22;24243;51.956;5.902;2022-09-03T13:53:39;26.60;37.00
38464;DHT22;24243;51.956;5.902;2022-09-03T13:56:12;26.60;37.00
38464;DHT22;24243;51.956;5.902;2022-09-03T13:58:51;26.60;37.00
38464;DHT22;24243;51.956;5.902;2022-09-03T14:04:02;26.60;37.00
38464;DHT22;24243;51.956;5.902;2022-09-03T14:16:55;26.60;37.10
38464;DHT22;24243;51.956;5.902;2022-09-03T14:22:06;26.60;37.10
38464;DHT22;24243;51.956;5.902;2022-09-03T14:27:02;26.60;37.10
38464;DHT22;24243;51.956;5.902;2022-09-03T14:29:29;26.70;37.30
38464;DHT22;24243;51.956;5.902;2022-09-03T14:34:25;26.70;37.30
38464;DHT22;24243;51.956;5.902;2022-09-03T14:37:04;26.70;37.30
38464;DHT22;24243;51.956;5.902;2022-09-03T14:39:46;26.70;37.40
38464;DHT22;24243;51.956;5.902;2022-09-03T14:42:30;26.70;37.40
38464;DHT22;24243;51.956;5.902;2022-09-03T14:45:05;26.70;37.50
38464;DHT22;24243;51.956;5.902;2022-09-03T14:50:32;26.80;37.50
38464;DHT22;24243;51.956;5.902;2022-09-03T14:58:32;26.80;37.60
38464;DHT22;24243;51.956;5.902;2022-09-03T15:01:05;26.80;37.70
38464;DHT22;24243;51.956;5.902;2022-09-03T15:03:42;26.80;37.70
38464;DHT22;24243;51.956;5.902;2022-09-03T15:08:54;26.80;37.70
38464;DHT22;24243;51.956;5.902;2022-09-03T15:11:24;26.80;37.70
38464;DHT22;24243;51.956;5.902;2022-09-03T15:13:59;26.80;37.70
38464;DHT22;24243;51.956;5.902;2022-09-03T15:31:56;26.80;37.60
38464;DHT22;24243;51.956;5.902;2022-09-03T15:36:50;26.80;37.60
38464;DHT22;24243;51.956;5.902;2022-09-03T15:39:22;26.80;37.60
38464;DHT22;24243;51.956;5.902;2022-09-03T15:42:03;26.70;37.50
38464;DHT22;24243;51.956;5.902;2022-09-03T15:44:34;26.80;37.60
38464;DHT22;24243;51.956;5.902;2022-09-03T15:52:08;26.70;37.60
38464;DHT22;24243;51.956;5.902;2022-09-03T15:54:37;26.70;37.70
38464;DHT22;24243;51.956;5.902;2022-09-03T15:59:50;26.70;37.60
38464;DHT22;24243;51.956;5.902;2022-09-03T16:02:19;26.70;37.60
38464;DHT22;24243;51.956;5.902;2022-09-03T16:05:01;26.70;37.60
38464;DHT22;24243;51.956;5.902;2022-09-03T16:07:39;26.70;37.60
38464;DHT22;24243;51.956;5.902;2022-09-03T16:10:16;26.70;37.60
38464;DHT22;24243;51.956;5.902;2022-09-03T16:12:52;26.70;37.60
38464;DHT22;24243;51.956;5.902;2022-09-03T16:15:25;26.70;37.60
38464;DHT22;24243;51.956;5.902;2022-09-03T16:20:24;26.70;37.70
38464;DHT22;24243;51.956;5.902;2022-09-03T16:22:55;26.70;37.70
38464;DHT22;24243;51.956;5.902;2022-09-03T16:28:05;26.70;37.80
38464;DHT22;24243;51.956;5.902;2022-09-03T16:33:05;26.70;37.90
38464;DHT22;24243;51.956;5.902;2022-09-03T16:35:43;26.70;38.00
38464;DHT22;24243;51.956;5.902;2022-09-03T16:38:23;26.70;38.00
38464;DHT22;24243;51.956;5.902;2022-09-03T16:40:59;26.70;38.00
38464;DHT22;24243;51.956;5.902;2022-09-03T16:43:29;26.70;38.00
38464;DHT22;24243;51.956;5.902;2022-09-03T16:51:09;26.70;38.00
38464;DHT22;24243;51.956;5.902;2022-09-03T16:56:36;26.70;38.00
38464;DHT22;24243;51.956;5.902;2022-09-03T17:01:54;26.70;38.10
38464;DHT22;24243;51.956;5.902;2022-09-03T17:09:22;26.70;38.30
38464;DHT22;24243;51.956;5.902;2022-09-03T17:11:59;26.70;38.40
38464;DHT22;24243;51.956;5.902;2022-09-03T17:20:12;26.70;38.60
38464;DHT22;24243;51.956;5.902;2022-09-03T17:22:53;26.70;38.70
38464;DHT22;24243;51.956;5.902;2022-09-03T17:25:37;26.70;38.70
38464;DHT22;24243;51.956;5.902;2022-09-03T17:30:40;26.70;38.90
38464;DHT22;24243;51.956;5.902;2022-09-03T17:36:22;26.70;38.90
38464;DHT22;24243;51.956;5.902;2022-09-03T17:38:58;26.70;39.20
38464;DHT22;24243;51.956;5.902;2022-09-03T17:44:03;26.70;39.00
38464;DHT22;24243;51.956;5.902;2022-09-03T17:49:47;26.70;39.10
38464;DHT22;24243;51.956;5.902;2022-09-03T17:52:19;26.70;39.10
38464;DHT22;24243;51.956;5.902;2022-09-03T17:54:47;26.60;39.10
38464;DHT22;24243;51.956;5.902;2022-09-03T17:57:19;26.70;39.20
38464;DHT22;24243;51.956;5.902;2022-09-03T18:00:00;26.60;39.10
38464;DHT22;24243;51.956;5.902;2022-09-03T18:13:11;26.60;39.20
38464;DHT22;24243;51.956;5.902;2022-09-03T18:15:54;26.60;39.20
38464;DHT22;24243;51.956;5.902;2022-09-03T18:18:28;26.60;39.30
38464;DHT22;24243;51.956;5.902;2022-09-03T18:20:55;26.60;39.30
38464;DHT22;24243;51.956;5.902;2022-09-03T18:23:48;26.60;39.40
38464;DHT22;24243;51.956;5.902;2022-09-03T18:26:37;26.60;39.40
38464;DHT22;24243;51.956;5.902;2022-09-03T18:32:07;26.60;39.40
38464;DHT22;24243;51.956;5.902;2022-09-03T18:34:51;26.50;39.40
38464;DHT22;24243;51.956;5.902;2022-09-03T18:37:35;26.50;39.50
38464;DHT22;24243;51.956;5.902;2022-09-03T18:40:24;26.50;39.70
38464;DHT22;24243;51.956;5.902;2022-09-03T18:52:00;26.40;39.80
38464;DHT22;24243;51.956;5.902;2022-09-03T19:01:04;26.30;40.00
38464;DHT22;24243;51.956;5.902;2022-09-03T19:03:55;26.30;40.20
38464;DHT22;24243;51.956;5.902;2022-09-03T19:06:47;26.20;40.30
38464;DHT22;24243;51.956;5.902;2022-09-03T19:09:40;26.20;40.40
38464;DHT22;24243;51.956;5.902;2022-09-03T19:21:30;26.20;40.50
38464;DHT22;24243;51.956;5.902;2022-09-03T19:24:16;26.30;40.50
38464;DHT22;24243;51.956;5.902;2022-09-03T19:27:06;26.30;40.50
38464;DHT22;24243;51.956;5.902;2022-09-03T19:30:55;26.30;40.50
38464;DHT22;24243;51.956;5.902;2022-09-03T19:33:10;26.30;40.60
38464;DHT22;24243;51.956;5.902;2022-09-03T19:48:13;26.10;40.80
38464;DHT22;24243;51.956;5.902;2022-09-03T19:51:11;26.10;40.90
38464;DHT22;24243;51.956;5.902;2022-09-03T19:53:58;26.10;41.00
38464;DHT22;24243;51.956;5.902;2022-09-03T19:56:44;26.10;41.10
38464;DHT22;24243;51.956;5.902;2022-09-03T19:59:31;26.10;41.10
38464;DHT22;24243;51.956;5.902;2022-09-03T20:02:16;26.00;41.10
38464;DHT22;24243;51.956;5.902;2022-09-03T20:05:01;26.00;41.20
38464;DHT22;24243;51.956;5.902;2022-09-03T20:07:46;26.00;41.20
38464;DHT22;24243;51.956;5.902;2022-09-03T20:10:32;26.00;41.30
38464;DHT22;24243;51.956;5.902;2022-09-03T20:20:47;25.90;41.50
38464;DHT22;24243;51.956;5.902;2022-09-03T20:25:58;25.90;41.50
38464;DHT22;24243;51.956;5.902;2022-09-03T20:28:30;25.90;41.60
38464;DHT22;24243;51.956;5.902;2022-09-03T20:31:09;25.80;41.60
38464;DHT22;24243;51.956;5.902;2022-09-03T20:33:44;25.80;41.70
38464;DHT22;24243;51.956;5.902;2022-09-03T20:36:23;25.80;41.70
38464;DHT22;24243;51.956;5.902;2022-09-03T20:51:31;25.70;42.20
38464;DHT22;24243;51.956;5.902;2022-09-03T21:01:56;25.60;42.40